Weather observations for the past three days for
General Wm J Fox Airfield
Imperial (Metric)
Date Time (pdt) Wind (mph) Vis. (mi.) Weather Sky Cond. Temperature (ºF) Relative Humidity Wind Chill (°F) Heat Index (°F) Pressure Precipitation (in)
Air Dwpt 6 hour altimeter (in) sea level (mb) 1 hr 3 hr 6 hr
Max. Min.
03 23:56 SW 16 G 25 10.00 Fair CLR 52 43 72% 29.92 1012.6
03 22:56 SW 18 G 28 10.00 Fair CLR 53.1 44.1 63 53.1 72% 29.92 1012.5
03 21:56 SW 21 G 29 10.00 Fair and Breezy CLR 54 43 67% 29.92 1012.6
03 20:56 SW 22 G 32 10.00 Fair and Breezy CLR 55 44.1 67% 29.89 1011.3
03 19:56 SW 20 G 31 10.00 Fair CLR 55.9 44.1 65% 29.87 1011.0
03 18:56 SW 21 G 36 10.00 Fair and Breezy CLR 57.9 44.1 60% 29.85 1010.5
03 17:56 SW 23 G 35 10.00 Fair and Breezy CLR 61 44.1 54% 29.86 1010.5
03 16:56 SW 21 G 37 10.00 Fair and Breezy CLR 63 45 68 62.1 52% 29.85 1010.1
03 15:56 SW 30 G 39 10.00 Fair and Windy CLR 63 46 54% 29.84 1009.7
03 14:56 SW 25 G 35 10.00 Fair and Breezy CLR 64 46 52% 29.87 1010.9
03 13:56 W 25 G 36 10.00 Fair and Breezy CLR 64.9 46 51% 29.88 1011.1
03 12:56 W 22 G 30 10.00 Fair and Breezy CLR 66.9 46 47% 29.89 1011.5
03 11:56 SW 28 G 37 10.00 Fair and Windy CLR 68 45 44% 29.89 1011.2
03 10:56 SW 22 G 36 10.00 Fair and Breezy CLR 64 46.9 66 51.1 54% 29.9 1011.5
03 09:56 SW 24 10.00 Fair and Breezy CLR 64 46.9 54% 29.89 1011.1
03 08:56 SW 18 10.00 Fair CLR 64.9 44.1 47% 29.89 1010.9
03 07:56 W 12 10.00 Fair CLR 62.1 46 56% 29.88 1010.6
03 06:56 SW 3 10.00 Fair CLR 54 42.1 64% 29.88 1010.6
03 05:56 SW 5 10.00 Fair CLR 54 44.1 69% 29.88 1010.4
03 04:56 W 3 10.00 Fair CLR 55 43 63 54 64% 29.88 1010.3
03 03:56 S 3 10.00 Fair CLR 55.9 43 62% 29.88 1010.5
03 02:56 W 12 10.00 Fair CLR 57 43 60% 29.87 1010.2
03 01:56 W 13 10.00 Fair CLR 60.1 46 60% 29.88 1010.3
03 00:56 W 6 10.00 Fair CLR 57 46 67% 29.9 1011.2
02 23:56 W 10 10.00 Fair CLR 61 44.1 54% 29.91 1011.4
02 22:56 SW 12 10.00 Fair CLR 64 48.9 84 64 58% 29.91 1011.3
02 21:56 N 6 10.00 Fair CLR 64.9 50 59% 29.91 1011.2
02 20:56 W 14 10.00 Fair CLR 69.1 48.9 49% 29.87 1010.0
02 19:56 SW 15 10.00 Fair CLR 73.9 41 31% 29.85 1009.5
02 18:56 SW 17 10.00 Fair CLR 78.1 39.9 26% 78 29.84 1009.2
02 17:56 SW 18 G 31 10.00 Fair CLR 81 34 18% 79 29.83 1009.3
02 16:56 SW 20 G 32 10.00 Fair CLR 84 32 86 77 15% 81 29.84 1009.1
02 15:56 SW 17 G 26 10.00 Fair CLR 86 34 15% 83 29.86 1009.6
02 14:56 S 14 G 25 10.00 Fair CLR 84.9 34 16% 82 29.89 1010.8
02 13:56 Calm 10.00 Fair CLR 84.9 30.9 14% 82 29.9 1011.0
02 12:56 Calm 10.00 Fair CLR 82 28.9 14% 80 29.93 1012.1
02 11:56 S 5 10.00 Fair CLR 80.1 28.9 15% 78 29.96 1013.1
02 10:56 Calm 10.00 Fair CLR 77 32 78.1 45 19% 77 29.98 1013.6
02 09:56 Calm 10.00 A Few Clouds FEW002 73.9 35.1 24% 29.98 1014.0
02 08:56 Calm 10.00 Fair CLR 68 37 32% 29.99 1014.3
02 07:56 Calm 10.00 Fair CLR 60.1 37.9 44% 29.99 1014.6
02 06:56 NW 7 10.00 Fair CLR 52 36 55% 29.98 1014.2
02 05:56 N 7 10.00 Fair CLR 45 32 61% 42 29.96 1013.5
02 04:56 Calm 10.00 Fair CLR 52 33.1 66 50 49% 29.94 1012.7
02 03:56 Calm 10.00 Fair CLR 52 35.1 53% 29.94 1012.8
02 02:56 Calm 10.00 Fair CLR 51.1 35.1 54% 29.94 1012.7
02 01:56 Calm 10.00 Fair CLR 57.9 37 46% 29.95 1012.9
02 00:56 NE 3 10.00 Fair CLR 55.9 35.1 46% 29.96 1013.3
01 23:56 W 6 10.00 Fair CLR 61 35.1 38% 29.95 1012.8
01 22:56 W 10 10.00 Fair CLR 66 35.1 86 66 32% 29.95 1012.6
01 21:56 SW 8 10.00 Fair CLR 68 33.1 27% 29.94 1012.5
01 20:56 W 12 10.00 Fair CLR 70 33.1 26% 29.93 1011.9
01 19:56 SW 15 10.00 Fair CLR 72 36 27% 29.9 1011.1
01 18:56 SW 17 10.00 Fair CLR 78.1 37.9 24% 78 29.88 1010.6
01 17:56 SW 20 G 30 10.00 Fair CLR 82 37.9 21% 80 29.87 1010.1
01 16:56 SW 22 G 29 10.00 Fair and Breezy CLR 84.9 37 86 79 18% 82 29.87 1009.8
01 15:56 S 8 10.00 Fair CLR 82.9 36 19% 80 29.88 1010.3
01 14:56 Calm 10.00 Fair CLR 84 25 11% 81 29.91 1011.1
01 13:56 Vrbl 3 10.00 Fair CLR 82.9 26.1 12% 80 29.93 1011.8
01 12:56 S 7 10.00 Fair CLR 82.9 28 13% 80 29.94 1012.2
01 11:56 E 7 10.00 Fair CLR 82 28.9 14% 80 29.97 1013.1
01 10:56 Vrbl 6 10.00 Fair CLR 79 36 80.1 54 21% 78 29.98 1013.7
01 09:56 Calm 10.00 Fair CLR 75.9 37.9 25% 77 29.98 1013.9
01 08:56 Calm 10.00 Fair CLR 70 42.1 37% 29.98 1014.0
01 07:56 Calm 10.00 Fair CLR 64 44.1 48% 29.98 1014.0
01 06:56 E 6 10.00 Fair CLR 55.9 42.1 60% 29.96 1013.6
01 05:56 Calm 10.00 Fair CLR 59 43 56% 29.94 1012.4
01 04:56 W 7 10.00 Fair CLR 57.9 42.1 66 57.9 56% 29.93 1012.1
01 03:56 W 9 10.00 Fair CLR 61 43 52% 29.92 1011.7
01 02:56 W 12 10.00 Fair CLR 63 43 48% 29.92 1011.6
01 01:56 W 14 10.00 Fair CLR 64.9 42.1 43% 29.92 1011.5
01 00:56 W 13 10.00 Fair CLR 64 41 43% 29.92 1011.8
Date Time (pdt) Wind (mph) Vis. (mi.) Weather Sky Cond. Air Dwpt Max. Min. Relative Humidity Wind Chill (°F) Heat Index (°F) altimeter (in) sea level (mb) 1 hr 3 hr 6 hr
6 hour
Temperature (ºF) Pressure Precipitation (in)